Time;durP1;ratioP1;P1;durP2;ratioP2;P2;SDS_P1;SDS_P2;PMS_P1;PMS_P2;Temp;Humidity;BMP_temperature;BMP_pressure;BME280_temperature;BME280_humidity;BME280_pressure;Samples;Min_cycle;Max_cycle;Signal;HPM_P1;HPM_P2
2022/12/12 00:00:03;;;;;;;22.25;9.70;;;2.00;99.90;;;;;;6178946;23;20043;-84
2022/12/12 00:02:29;;;;;;;23.25;9.45;;;1.90;99.90;;;;;;6181532;23;20083;-84
2022/12/12 00:04:56;;;;;;;21.17;9.85;;;1.90;99.90;;;;;;6155269;23;20075;-84
2022/12/12 00:07:22;;;;;;;20.75;9.43;;;1.90;99.90;;;;;;6155054;23;20516;-84
2022/12/12 00:09:47;;;;;;;22.20;9.80;;;2.00;99.90;;;;;;6154357;23;20009;-84
2022/12/12 00:12:13;;;;;;;21.33;9.68;;;1.90;99.90;;;;;;6155574;23;20017;-84
2022/12/12 00:14:39;;;;;;;19.45;9.50;;;1.90;99.90;;;;;;6180251;23;20048;-84
2022/12/12 00:17:04;;;;;;;18.27;9.25;;;1.90;99.90;;;;;;6154853;23;20017;-84
2022/12/12 00:19:30;;;;;;;21.92;9.15;;;1.90;99.90;;;;;;6155984;23;20028;-84
2022/12/12 00:21:56;;;;;;;22.33;9.90;;;1.90;99.90;;;;;;6154084;23;20330;-83
2022/12/12 00:24:21;;;;;;;19.33;9.88;;;1.90;99.90;;;;;;6154615;23;20017;-84
2022/12/12 00:26:47;;;;;;;20.45;9.73;;;1.90;99.90;;;;;;6154563;23;20076;-84
2022/12/12 00:29:13;;;;;;;20.92;8.85;;;1.90;99.90;;;;;;6154892;23;20017;-84
2022/12/12 00:31:38;;;;;;;19.83;8.98;;;1.90;99.90;;;;;;6181737;23;20084;-84
2022/12/12 00:34:04;;;;;;;21.42;10.20;;;1.90;99.90;;;;;;6183006;23;20694;-84
2022/12/12 00:36:30;;;;;;;20.55;9.43;;;1.90;99.90;;;;;;6156401;23;20013;-84
2022/12/12 00:38:57;;;;;;;19.48;8.70;;;1.90;99.90;;;;;;6163212;23;20035;-84
2022/12/12 00:41:23;;;;;;;19.85;8.98;;;2.00;99.90;;;;;;6189432;23;20021;-83
2022/12/12 00:43:49;;;;;;;22.52;9.75;;;1.90;99.90;;;;;;6166880;23;20040;-84
2022/12/12 00:46:17;;;;;;;21.23;9.00;;;2.00;99.90;;;;;;6159465;23;20084;-84
2022/12/12 00:48:43;;;;;;;22.35;10.32;;;2.00;99.90;;;;;;6184611;23;20350;-84
2022/12/12 00:51:12;;;;;;;20.10;8.82;;;1.90;99.90;;;;;;6155946;23;20020;-84
2022/12/12 00:53:38;;;;;;;23.30;10.00;;;1.90;99.90;;;;;;6156195;23;20048;-84
2022/12/12 00:56:04;;;;;;;25.95;9.80;;;1.90;99.90;;;;;;6156216;23;20017;-84
2022/12/12 00:58:31;;;;;;;20.15;8.98;;;2.00;99.90;;;;;;6154699;23;20035;-84
2022/12/12 01:01:05;;;;;;;19.02;8.75;;;2.00;99.90;;;;;;6129633;23;20019;-84
2022/12/12 01:03:34;;;;;;;20.63;9.20;;;2.00;99.90;;;;;;6155749;23;20474;-84
2022/12/12 01:06:01;;;;;;;19.70;8.65;;;2.00;99.90;;;;;;6180473;23;20454;-84
2022/12/12 01:08:27;;;;;;;22.23;9.07;;;2.00;99.90;;;;;;6155947;23;20013;-84
2022/12/12 01:10:53;;;;;;;22.85;8.85;;;1.90;99.90;;;;;;6129772;23;20013;-84
2022/12/12 01:13:18;;;;;;;19.25;8.55;;;1.90;99.90;;;;;;6155176;23;20067;-84
2022/12/12 01:15:44;;;;;;;20.27;9.18;;;1.90;99.90;;;;;;6180993;23;20006;-84
2022/12/12 01:18:10;;;;;;;21.63;9.73;;;1.90;99.90;;;;;;6154947;23;20430;-84
2022/12/12 01:20:35;;;;;;;21.15;9.82;;;1.90;99.90;;;;;;6155599;23;20037;-84
2022/12/12 01:23:01;;;;;;;20.52;8.93;;;1.90;99.90;;;;;;6154498;23;20334;-84
2022/12/12 01:25:27;;;;;;;19.08;8.73;;;1.90;99.90;;;;;;6155491;23;20092;-84
2022/12/12 01:27:52;;;;;;;19.98;9.43;;;1.90;99.90;;;;;;6179380;23;20141;-84
2022/12/12 01:30:21;;;;;;;22.20;9.60;;;1.90;99.90;;;;;;6154195;23;20031;-85
2022/12/12 01:32:47;;;;;;;20.00;8.90;;;1.70;99.90;;;;;;6129824;23;20025;-84
2022/12/12 01:35:12;;;;;;;21.10;9.13;;;1.70;99.90;;;;;;6153963;23;20089;-84
2022/12/12 01:37:39;;;;;;;18.35;8.32;;;1.70;99.90;;;;;;6181247;23;20063;-84
2022/12/12 01:40:07;;;;;;;22.20;11.10;;;1.60;99.90;;;;;;6154591;23;20013;-84
2022/12/12 01:42:33;;;;;;;19.48;9.00;;;1.60;99.90;;;;;;6180050;23;20021;-84
2022/12/12 01:44:59;;;;;;;18.92;8.55;;;1.60;99.90;;;;;;6153328;23;20019;-84
2022/12/12 01:47:28;;;;;;;21.98;9.38;;;1.70;99.90;;;;;;6153735;23;20327;-84
2022/12/12 01:50:01;;;;;;;19.50;8.85;;;1.70;99.90;;;;;;6179142;23;20091;-84
2022/12/12 01:52:36;;;;;;;21.48;9.27;;;1.80;99.90;;;;;;6154924;23;20013;-84
2022/12/12 01:55:06;;;;;;;17.88;7.90;;;1.80;99.90;;;;;;6180929;23;20095;-84
2022/12/12 01:57:37;;;;;;;18.98;8.68;;;1.80;99.90;;;;;;6154740;23;20013;-84
2022/12/12 02:00:07;;;;;;;20.40;8.98;;;1.80;99.90;;;;;;6153298;23;20025;-84
2022/12/12 02:02:33;;;;;;;22.27;9.32;;;1.80;99.90;;;;;;6154092;23;20047;-85
2022/12/12 02:05:04;;;;;;;16.95;8.02;;;1.90;99.90;;;;;;6153383;23;20131;-84
2022/12/12 02:07:30;;;;;;;18.67;8.73;;;1.80;99.90;;;;;;6154102;23;20056;-84
2022/12/12 02:09:55;;;;;;;19.73;8.73;;;1.80;99.90;;;;;;6180383;23;20013;-85
2022/12/12 02:12:21;;;;;;;18.65;8.35;;;1.80;99.90;;;;;;6179905;23;20013;-84
2022/12/12 02:14:49;;;;;;;19.48;8.48;;;1.80;99.90;;;;;;6180688;23;20052;-84
2022/12/12 02:17:45;;;;;;;19.77;8.55;;;1.90;99.90;;;;;;6153917;23;20072;-84
2022/12/12 02:20:42;;;;;;;19.95;8.73;;;1.80;99.90;;;;;;6129911;23;20013;-84
2022/12/12 02:23:53;;;;;;;18.55;7.85;;;1.80;99.90;;;;;;6179588;23;20342;-84
2022/12/12 02:26:51;;;;;;;17.95;7.47;;;1.80;99.90;;;;;;6180515;23;20025;-84
2022/12/12 02:29:35;;;;;;;18.23;7.35;;;1.70;99.90;;;;;;6179037;23;20446;-84
2022/12/12 02:32:24;;;;;;;15.57;7.47;;;1.70;99.90;;;;;;6179033;23;20350;-84
2022/12/12 02:35:15;;;;;;;19.55;8.23;;;1.80;99.90;;;;;;6153367;23;20343;-84
2022/12/12 02:38:00;;;;;;;19.27;8.50;;;1.80;99.90;;;;;;6154462;23;20043;-84
2022/12/12 02:40:41;;;;;;;16.92;7.75;;;1.80;99.90;;;;;;6128951;23;20020;-84
2022/12/12 02:43:12;;;;;;;20.27;8.88;;;1.80;99.90;;;;;;6178213;23;20021;-84
2022/12/12 02:45:55;;;;;;;19.15;9.15;;;1.80;99.90;;;;;;6153944;23;20023;-83
2022/12/12 02:48:44;;;;;;;19.73;8.48;;;1.80;99.90;;;;;;6153896;23;20017;-84
2022/12/12 02:51:12;;;;;;;19.23;8.48;;;1.80;99.90;;;;;;6154624;23;20021;-84
2022/12/12 02:53:38;;;;;;;19.77;8.18;;;1.80;99.90;;;;;;6181037;23;20012;-83
2022/12/12 02:56:06;;;;;;;18.67;7.70;;;1.80;99.90;;;;;;6128695;23;20260;-84
2022/12/12 02:58:36;;;;;;;17.73;7.25;;;1.80;99.90;;;;;;6153891;23;20472;-84
2022/12/12 03:01:15;;;;;;;17.30;8.63;;;1.80;99.90;;;;;;6179037;23;20067;-84
2022/12/12 03:10:00;;;;;;;19.88;8.68;;;1.80;99.90;;;;;;6154231;23;20021;-84
2022/12/12 03:12:49;;;;;;;18.88;8.02;;;1.80;99.90;;;;;;6178443;23;20091;-84
2022/12/12 03:15:42;;;;;;;18.23;8.18;;;1.70;99.90;;;;;;6153501;23;20020;-84
2022/12/12 03:18:23;;;;;;;18.40;8.52;;;1.80;99.90;;;;;;6064346;23;20014;-84
2022/12/12 03:21:06;;;;;;;19.95;8.48;;;1.80;99.90;;;;;;6064278;23;20019;-84
2022/12/12 03:23:45;;;;;;;20.77;8.13;;;1.80;99.90;;;;;;6065455;23;20474;-84
2022/12/12 03:26:21;;;;;;;21.00;8.13;;;1.70;99.90;;;;;;6088631;23;20018;-84
2022/12/12 03:29:10;;;;;;;19.70;8.55;;;1.70;99.90;;;;;;6064651;23;20409;-84
2022/12/12 03:31:40;;;;;;;20.48;8.88;;;1.80;99.90;;;;;;6064707;23;20060;-84
2022/12/12 03:34:13;;;;;;;19.20;7.97;;;1.80;99.90;;;;;;6063713;23;20400;-84
2022/12/12 03:36:51;;;;;;;18.42;8.52;;;1.80;99.90;;;;;;6065312;23;20126;-85
2022/12/12 03:39:35;;;;;;;19.90;8.70;;;1.80;99.90;;;;;;6064302;23;20085;-84
2022/12/12 03:42:41;;;;;;;19.17;8.63;;;1.80;99.90;;;;;;6064071;23;20499;-84
2022/12/12 03:45:34;;;;;;;20.10;8.85;;;1.80;99.90;;;;;;6087415;23;20058;-84
2022/12/12 03:48:43;;;;;;;16.90;7.68;;;1.70;99.90;;;;;;5973638;24;20047;-85
2022/12/12 03:51:37;;;;;;;18.75;7.97;;;1.70;99.90;;;;;;5935672;24;20051;-84
2022/12/12 03:54:35;;;;;;;18.85;8.50;;;1.70;99.90;;;;;;5956398;23;20276;-85
2022/12/12 03:57:08;;;;;;;18.52;7.95;;;1.80;99.90;;;;;;6058634;23;20353;-85
2022/12/12 03:59:48;;;;;;;19.00;9.45;;;1.70;99.90;;;;;;6059301;23;20021;-84
2022/12/12 04:02:22;;;;;;;20.08;7.82;;;1.80;99.90;;;;;;6059304;23;20023;-84
2022/12/12 04:05:29;;;;;;;17.67;7.97;;;1.80;99.90;;;;;;6059916;23;20023;-84
2022/12/12 04:08:13;;;;;;;16.48;7.43;;;1.80;99.90;;;;;;6049743;23;20050;-84
2022/12/12 04:13:54;;;;;;;17.30;8.23;;;1.70;99.90;;;;;;6060175;23;20023;-85
2022/12/12 04:16:32;;;;;;;18.75;7.82;;;1.80;99.90;;;;;;6061584;23;20015;-84
2022/12/12 04:19:00;;;;;;;19.67;7.35;;;1.70;99.90;;;;;;6011900;23;20026;-84
2022/12/12 04:24:57;;;;;;;20.70;9.48;;;1.70;99.90;;;;;;6095945;23;20025;-83
2022/12/12 04:27:34;;;;;;;18.55;7.78;;;1.60;99.90;;;;;;6179759;23;20032;-84
2022/12/12 04:30:06;;;;;;;17.73;7.82;;;1.60;99.90;;;;;;6151911;23;20104;-87
2022/12/12 04:32:38;;;;;;;19.52;8.57;;;1.60;99.90;;;;;;6181374;23;20017;-84
2022/12/12 04:35:14;;;;;;;17.30;7.45;;;1.60;99.90;;;;;;6180281;23;20024;-82
2022/12/12 04:37:50;;;;;;;18.60;8.38;;;1.70;99.90;;;;;;6153985;23;20075;-83
2022/12/12 04:40:41;;;;;;;19.00;8.50;;;1.70;99.90;;;;;;6154738;23;20009;-83
2022/12/12 04:43:19;;;;;;;19.67;8.32;;;1.70;99.90;;;;;;6182262;23;20009;-83
2022/12/12 04:45:55;;;;;;;18.92;8.20;;;1.70;99.90;;;;;;6157064;23;20013;-83
2022/12/12 04:48:35;;;;;;;21.15;9.05;;;1.80;99.90;;;;;;6162833;23;20017;-82
2022/12/12 04:51:04;;;;;;;19.55;8.77;;;1.80;99.90;;;;;;6159600;23;20059;-83
2022/12/12 04:53:37;;;;;;;19.38;8.48;;;1.80;99.90;;;;;;6153782;23;20063;-83
2022/12/12 04:56:08;;;;;;;22.45;8.95;;;1.80;99.90;;;;;;6154214;23;20063;-83
2022/12/12 04:58:36;;;;;;;16.38;8.45;;;1.80;99.90;;;;;;6154450;23;20013;-83
2022/12/12 05:01:17;;;;;;;20.60;8.93;;;1.80;99.90;;;;;;6128851;23;20017;-83
2022/12/12 05:03:48;;;;;;;20.92;8.57;;;1.80;99.90;;;;;;6180992;23;20236;-83
2022/12/12 05:06:16;;;;;;;;;;;1.70;99.90;;;;;;6153756;23;20126;-83
2022/12/12 05:08:46;;;;;;;19.60;8.60;;;1.70;99.90;;;;;;6154613;23;20318;-83
2022/12/12 05:11:12;;;;;;;19.95;8.02;;;1.70;99.90;;;;;;6129880;23;20045;-83
2022/12/12 05:13:41;;;;;;;19.10;8.45;;;1.70;99.90;;;;;;6151840;23;20063;-83
2022/12/12 05:16:19;;;;;;;20.23;8.23;;;1.70;99.90;;;;;;6179097;23;20013;-86
2022/12/12 05:18:45;;;;;;;18.10;7.75;;;1.70;99.90;;;;;;6152951;23;20021;-83
2022/12/12 05:21:11;;;;;;;19.27;7.93;;;1.70;99.90;;;;;;6153239;23;20357;-83
2022/12/12 05:23:36;;;;;;;17.73;7.25;;;1.70;99.90;;;;;;6177215;23;20394;-84
2022/12/12 05:26:21;;;;;;;16.55;7.60;;;1.80;99.90;;;;;;6152656;23;20063;-84
2022/12/12 05:28:47;;;;;;;18.65;7.97;;;1.70;99.90;;;;;;6178443;23;20364;-82
2022/12/12 05:31:13;;;;;;;18.13;8.13;;;1.80;99.90;;;;;;6154665;23;20070;-88
2022/12/12 05:33:38;;;;;;;16.98;7.38;;;1.70;99.90;;;;;;6155567;23;20508;-87
2022/12/12 05:36:04;;;;;;;18.58;7.95;;;1.80;99.90;;;;;;6153889;23;20485;-86
2022/12/12 05:38:30;;;;;;;21.13;7.68;;;1.80;99.90;;;;;;6180787;23;20092;-86
2022/12/12 05:40:56;;;;;;;16.30;6.90;;;1.70;99.90;;;;;;6152905;23;20013;-88
2022/12/12 05:43:22;;;;;;;16.83;6.57;;;1.70;99.90;;;;;;6153695;23;20016;-85
2022/12/12 05:45:48;;;;;;;18.70;7.13;;;1.70;99.90;;;;;;6154070;23;20051;-86
2022/12/12 05:48:13;;;;;;;20.13;8.05;;;1.70;99.90;;;;;;6153418;23;20016;-86
2022/12/12 05:50:39;;;;;;;18.48;7.90;;;1.70;99.90;;;;;;6180581;23;20067;-86
2022/12/12 05:53:04;;;;;;;18.73;7.72;;;1.70;99.90;;;;;;6178899;23;20091;-86
2022/12/12 05:55:30;;;;;;;19.38;8.07;;;1.70;99.90;;;;;;6153554;23;20104;-86
2022/12/12 05:57:56;;;;;;;19.02;8.13;;;1.70;99.90;;;;;;6153713;23;20048;-86
2022/12/12 06:00:22;;;;;;;18.15;7.35;;;1.70;99.90;;;;;;6153623;23;20041;-86
2022/12/12 06:02:48;;;;;;;17.27;7.38;;;1.80;99.90;;;;;;6152993;23;20076;-86
2022/12/12 06:05:14;;;;;;;21.42;8.25;;;1.70;99.90;;;;;;6153752;23;20056;-86
2022/12/12 06:07:39;;;;;;;18.55;8.30;;;1.70;99.90;;;;;;6154233;23;20208;-85
2022/12/12 06:10:06;;;;;;;18.67;8.85;;;1.70;99.90;;;;;;6179870;23;20071;-86
2022/12/12 06:12:31;;;;;;;21.35;9.13;;;1.70;99.90;;;;;;6154745;23;20108;-87
2022/12/12 06:14:57;;;;;;;20.38;9.05;;;1.70;99.90;;;;;;6152022;23;20049;-86
2022/12/12 06:17:22;;;;;;;18.42;8.32;;;1.60;99.90;;;;;;6154256;23;20062;-86
2022/12/12 06:19:48;;;;;;;19.25;7.70;;;1.70;99.90;;;;;;6153898;23;20104;-86
2022/12/12 06:22:14;;;;;;;19.60;8.63;;;1.70;99.90;;;;;;6153394;23;20067;-85
2022/12/12 06:24:40;;;;;;;19.58;8.27;;;1.70;99.90;;;;;;6153909;23;20024;-85
2022/12/12 06:27:05;;;;;;;19.08;8.30;;;1.60;99.90;;;;;;6152727;23;20067;-87
2022/12/12 06:29:31;;;;;;;18.77;8.98;;;1.70;99.90;;;;;;6179972;23;20450;-87
2022/12/12 06:31:57;;;;;;;22.85;8.98;;;1.60;99.90;;;;;;6178436;23;20018;-85
2022/12/12 06:34:23;;;;;;;20.42;8.48;;;1.70;99.90;;;;;;6151303;23;20065;-88
2022/12/12 06:36:48;;;;;;;20.35;8.75;;;1.70;99.90;;;;;;6152738;23;20343;-86
2022/12/12 06:39:14;;;;;;;19.27;8.90;;;1.60;99.90;;;;;;6153073;23;20068;-86
2022/12/12 06:41:40;;;;;;;17.52;7.75;;;1.70;99.90;;;;;;6180273;23;20016;-86
2022/12/12 06:44:06;;;;;;;20.13;8.32;;;1.70;99.90;;;;;;6153572;23;20350;-86
2022/12/12 06:46:31;;;;;;;19.25;8.73;;;1.70;99.90;;;;;;6154458;23;20013;-86
2022/12/12 06:48:58;;;;;;;17.50;7.72;;;1.70;99.90;;;;;;6152963;23;20045;-85
2022/12/12 06:51:32;;;;;;;19.98;8.55;;;1.70;99.90;;;;;;6154563;23;20008;-85
2022/12/12 06:53:58;;;;;;;20.23;9.23;;;1.70;99.90;;;;;;6153288;23;20098;-85
2022/12/12 06:56:28;;;;;;;19.17;8.77;;;1.60;99.90;;;;;;6154484;23;20044;-87
2022/12/12 06:58:54;;;;;;;19.77;9.73;;;1.70;99.90;;;;;;6180540;23;20020;-85
2022/12/12 07:01:22;;;;;;;22.13;9.52;;;1.70;99.90;;;;;;6154260;23;20682;-86
2022/12/12 07:03:49;;;;;;;19.23;9.20;;;1.70;99.90;;;;;;6153322;23;20769;-85
2022/12/12 07:06:16;;;;;;;18.60;8.70;;;1.70;99.90;;;;;;6152532;23;20084;-85
2022/12/12 07:08:42;;;;;;;19.48;8.73;;;1.70;99.90;;;;;;6179333;23;20092;-85
2022/12/12 07:11:12;;;;;;;20.58;8.30;;;1.70;99.90;;;;;;6178474;23;20044;-85
2022/12/12 07:13:37;;;;;;;19.13;7.88;;;1.70;99.90;;;;;;6154247;23;20021;-85
2022/12/12 07:16:03;;;;;;;20.90;9.05;;;1.60;99.90;;;;;;6152939;23;20035;-86
2022/12/12 07:18:29;;;;;;;18.38;8.02;;;1.60;99.90;;;;;;6152709;23;20021;-86
2022/12/12 07:20:58;;;;;;;20.55;8.82;;;1.70;99.90;;;;;;6178970;23;20028;-86
2022/12/12 07:23:24;;;;;;;19.60;8.57;;;1.70;99.90;;;;;;6153974;23;20474;-86
2022/12/12 07:25:49;;;;;;;18.95;8.30;;;1.60;99.90;;;;;;6153238;23;20024;-87
2022/12/12 07:28:15;;;;;;;18.48;8.23;;;1.60;99.90;;;;;;6154317;23;20021;-88
2022/12/12 07:30:44;;;;;;;20.23;8.98;;;1.70;99.90;;;;;;6155054;23;20028;-88
2022/12/12 07:33:10;;;;;;;19.67;8.27;;;1.60;99.90;;;;;;6154749;23;20040;-88
2022/12/12 07:35:36;;;;;;;21.17;8.32;;;1.60;99.90;;;;;;6181485;23;20433;-88
2022/12/12 07:38:02;;;;;;;18.20;8.25;;;1.60;99.90;;;;;;6155670;23;20064;-89
2022/12/12 07:40:28;;;;;;;21.17;8.55;;;1.60;99.90;;;;;;6131559;23;20028;-88
2022/12/12 07:42:54;;;;;;;19.42;9.38;;;1.60;99.90;;;;;;6154374;23;20013;-90
2022/12/12 07:45:20;;;;;;;20.45;8.65;;;1.60;99.90;;;;;;6153771;23;20063;-88
2022/12/12 07:47:45;;;;;;;20.13;8.60;;;1.60;99.90;;;;;;6155332;23;20013;-85
2022/12/12 07:50:12;;;;;;;17.83;8.38;;;1.60;99.90;;;;;;6157025;23;20021;-87
2022/12/12 07:52:37;;;;;;;19.08;8.57;;;1.70;99.90;;;;;;6158391;23;20024;-89
2022/12/12 07:55:04;;;;;;;19.25;8.25;;;1.60;99.90;;;;;;6184260;23;20399;-90
2022/12/12 07:57:30;;;;;;;21.75;8.35;;;1.60;99.90;;;;;;6158285;23;20044;-90
2022/12/12 07:59:56;;;;;;;18.48;8.40;;;1.60;99.90;;;;;;6190439;23;20016;-90
2022/12/12 08:02:23;;;;;;;22.00;9.73;;;1.60;99.90;;;;;;6170518;23;20178;-90
2022/12/12 08:04:48;;;;;;;21.75;9.90;;;1.60;99.90;;;;;;6174773;23;20028;-90
2022/12/12 08:07:14;;;;;;;23.65;9.20;;;1.50;99.90;;;;;;6171645;23;20017;-91
2022/12/12 08:09:40;;;;;;;18.23;8.73;;;1.50;99.90;;;;;;6198227;23;20450;-90
2022/12/12 08:12:06;;;;;;;21.05;9.10;;;1.50;99.90;;;;;;6165799;23;20013;-90
2022/12/12 08:14:31;;;;;;;22.73;10.07;;;1.50;99.90;;;;;;6177641;23;20028;-91
2022/12/12 08:16:57;;;;;;;18.40;8.98;;;1.50;99.90;;;;;;6167132;23;20009;-88
2022/12/12 08:19:23;;;;;;;22.88;9.82;;;1.50;99.90;;;;;;6165872;23;20016;-90
2022/12/12 08:21:49;;;;;;;20.52;8.32;;;1.50;99.90;;;;;;6164831;23;20041;-88
2022/12/12 08:24:15;;;;;;;19.80;9.13;;;1.50;99.90;;;;;;6164920;23;20028;-90
2022/12/12 08:26:42;;;;;;;21.30;9.85;;;1.50;99.90;;;;;;6193145;23;20017;-88
2022/12/12 08:29:08;;;;;;;18.30;8.18;;;1.50;99.90;;;;;;6165479;23;20017;-89
2022/12/12 08:31:36;;;;;;;20.48;9.68;;;1.50;99.90;;;;;;6183630;23;20088;-89
2022/12/12 08:34:01;;;;;;;20.13;7.88;;;1.50;99.90;;;;;;6183523;23;20013;-89
2022/12/12 08:36:29;;;;;;;20.02;8.40;;;1.40;99.90;;;;;;6169908;23;20601;-87
2022/12/12 08:39:03;;;;;;;17.92;8.38;;;1.40;99.90;;;;;;6175845;23;20009;-90
2022/12/12 08:41:29;;;;;;;21.85;9.38;;;1.40;99.90;;;;;;6159058;23;20036;-89
2022/12/12 08:43:58;;;;;;;19.38;8.90;;;1.50;99.90;;;;;;6209548;23;20052;-89
2022/12/12 08:46:24;;;;;;;19.75;8.85;;;1.50;99.90;;;;;;6183326;23;20009;-88
2022/12/12 08:48:49;;;;;;;18.50;8.50;;;1.50;99.90;;;;;;6176472;23;20013;-86
2022/12/12 08:51:17;;;;;;;21.38;9.52;;;1.50;99.90;;;;;;6166632;23;20009;-86
2022/12/12 08:53:47;;;;;;;19.52;9.00;;;1.50;99.90;;;;;;6168539;23;20025;-85
2022/12/12 08:56:13;;;;;;;20.55;8.98;;;1.60;99.90;;;;;;6200726;23;20024;-90
2022/12/12 08:58:39;;;;;;;21.05;9.55;;;1.60;99.90;;;;;;6173907;23;20013;-87
2022/12/12 09:01:31;;;;;;;19.85;8.98;;;1.60;99.90;;;;;;6176782;23;20001;-88
2022/12/12 09:03:57;;;;;;;21.20;9.25;;;1.60;99.90;;;;;;6199527;23;20028;-88
2022/12/12 09:06:24;;;;;;;20.17;9.63;;;1.50;99.90;;;;;;6178439;23;20012;-88
2022/12/12 09:08:49;;;;;;;20.80;9.23;;;1.60;99.90;;;;;;6178324;23;20225;-88
2022/12/12 09:11:16;;;;;;;23.02;10.35;;;1.60;99.90;;;;;;6170198;23;20013;-88
2022/12/12 09:13:42;;;;;;;23.58;10.18;;;1.60;99.90;;;;;;6201580;23;20017;-87
2022/12/12 09:16:09;;;;;;;22.55;9.98;;;1.60;99.90;;;;;;6170918;23;20036;-88
2022/12/12 09:18:36;;;;;;;20.35;9.82;;;1.70;99.90;;;;;;6202821;23;20023;-88
2022/12/12 09:21:03;;;;;;;21.48;9.75;;;1.70;99.90;;;;;;6152427;23;20031;-87
2022/12/12 09:23:28;;;;;;;21.75;9.85;;;1.70;99.90;;;;;;6166716;23;20047;-87
2022/12/12 09:25:54;;;;;;;23.83;10.57;;;1.70;99.90;;;;;;6167013;23;20029;-88
2022/12/12 09:28:22;;;;;;;22.50;10.00;;;1.70;99.90;;;;;;6196833;23;20017;-88
2022/12/12 09:30:48;;;;;;;22.35;9.43;;;1.80;99.90;;;;;;6191134;23;20027;-88
2022/12/12 09:33:15;;;;;;;18.92;9.73;;;1.80;99.90;;;;;;6191871;23;20076;-87
2022/12/12 09:35:41;;;;;;;21.48;10.18;;;1.80;99.90;;;;;;6167949;23;20012;-87
2022/12/12 09:38:07;;;;;;;19.85;10.02;;;1.80;99.90;;;;;;6139795;23;20071;-88
2022/12/12 09:40:52;;;;;;;22.33;10.27;;;1.80;99.90;;;;;;6165210;23;20108;-87
2022/12/12 09:43:32;;;;;;;23.52;10.20;;;1.90;99.90;;;;;;6164599;23;20044;-87
2022/12/12 09:45:58;;;;;;;19.35;9.45;;;1.90;99.90;;;;;;6192541;23;20013;-88
2022/12/12 09:48:40;;;;;;;19.52;9.98;;;1.90;99.90;;;;;;6168747;23;20024;-87
2022/12/12 09:51:07;;;;;;;18.25;9.38;;;1.90;99.90;;;;;;6155713;23;20360;-88
2022/12/12 09:53:33;;;;;;;21.40;10.02;;;1.90;99.90;;;;;;6191387;23;20020;-87
2022/12/12 09:56:23;;;;;;;21.35;10.70;;;1.90;99.90;;;;;;6164377;23;20024;-87
2022/12/12 09:58:57;;;;;;;22.10;11.38;;;1.80;99.90;;;;;;6166112;23;20013;-87
2022/12/12 10:01:45;;;;;;;23.80;10.30;;;1.90;99.90;;;;;;6161592;23;20013;-87
2022/12/12 10:04:41;;;;;;;23.23;9.90;;;1.90;99.90;;;;;;6174317;23;20005;-92
2022/12/12 10:07:27;;;;;;;25.25;11.70;;;1.90;99.90;;;;;;6171360;23;20013;-92
2022/12/12 10:10:19;;;;;;;23.67;11.93;;;2.00;99.90;;;;;;6193055;23;20020;-92
2022/12/12 10:12:46;;;;;;;28.67;12.90;;;2.00;99.90;;;;;;6205543;23;20024;-93
2022/12/12 10:15:35;;;;;;;23.90;11.13;;;2.00;99.90;;;;;;6182529;23;20048;-93
2022/12/12 10:18:08;;;;;;;24.50;11.55;;;2.00;99.90;;;;;;6153664;23;20056;-93
2022/12/12 10:20:47;;;;;;;28.25;12.15;;;2.00;99.90;;;;;;6174074;23;20069;-91
2022/12/12 10:23:47;;;;;;;28.63;13.02;;;2.00;99.90;;;;;;6177289;23;20021;-91
2022/12/12 10:26:24;;;;;;;25.75;11.30;;;2.10;99.90;;;;;;6080227;23;20027;-93
2022/12/12 10:28:54;;;;;;;27.35;12.77;;;2.10;99.90;;;;;;6056938;23;20027;-92
2022/12/12 10:31:32;;;;;;;27.55;12.43;;;2.10;99.90;;;;;;6083229;23;20007;-92
2022/12/12 10:34:19;;;;;;;28.63;12.70;;;2.10;99.90;;;;;;6083089;23;20022;-94
2022/12/12 10:37:20;;;;;;;28.45;13.23;;;2.10;99.90;;;;;;6062464;23;20023;-89
2022/12/12 10:40:23;;;;;;;31.70;13.50;;;2.20;99.90;;;;;;6055535;23;20018;-93
2022/12/12 10:43:04;;;;;;;28.08;12.10;;;2.10;99.90;;;;;;6061774;23;20011;-93
2022/12/12 10:45:48;;;;;;;30.48;13.73;;;2.10;99.90;;;;;;6064309;23;20050;-93
2022/12/12 10:48:13;;;;;;;27.63;14.13;;;2.10;99.90;;;;;;6064286;23;20022;-94
2022/12/12 10:50:47;;;;;;;28.30;13.57;;;2.20;99.90;;;;;;6089756;23;20086;-91
2022/12/12 10:53:13;;;;;;;27.08;12.70;;;2.20;99.90;;;;;;6090421;23;20014;-93
2022/12/12 10:55:57;;;;;;;30.42;12.68;;;2.20;99.90;;;;;;6066222;23;20046;-95
2022/12/12 10:58:27;;;;;;;29.10;13.98;;;2.20;99.90;;;;;;6065074;23;20074;-93
2022/12/12 11:01:01;;;;;;;28.63;14.13;;;2.20;99.90;;;;;;6065659;23;20034;-93
2022/12/12 11:03:56;;;;;;;29.83;14.15;;;2.20;99.90;;;;;;6170169;23;20088;-93
2022/12/12 11:06:45;;;;;;;28.48;14.13;;;2.20;99.90;;;;;;6144980;23;20111;-94
2022/12/12 11:09:21;;;;;;;29.85;13.50;;;2.30;99.90;;;;;;6142865;23;20398;-94
2022/12/12 11:12:10;;;;;;;29.52;14.20;;;2.30;99.90;;;;;;6139572;23;20052;-93
2022/12/12 11:14:39;;;;;;;28.13;13.25;;;2.30;99.90;;;;;;6154236;23;20264;-93
2022/12/12 11:17:27;;;;;;;25.60;12.45;;;2.30;99.90;;;;;;6135772;23;20017;-92
2022/12/12 11:19:56;;;;;;;28.02;12.88;;;2.30;99.90;;;;;;6160407;23;20079;-93
2022/12/12 11:22:24;;;;;;;31.27;13.18;;;2.40;99.90;;;;;;6183585;23;20099;-91
2022/12/12 11:24:50;;;;;;;27.73;14.20;;;2.40;99.90;;;;;;6183217;23;20024;-91
2022/12/12 11:27:27;;;;;;;26.98;12.57;;;2.40;99.90;;;;;;6189399;23;20019;-94
2022/12/12 11:30:07;;;;;;;30.52;13.93;;;2.40;99.90;;;;;;6163959;23;20021;-95
2022/12/12 11:32:44;;;;;;;27.70;12.75;;;2.40;99.90;;;;;;6162385;23;20013;-94
2022/12/12 11:35:32;;;;;;;26.33;12.32;;;2.40;99.90;;;;;;6138522;23;20440;-93
2022/12/12 11:38:02;;;;;;;26.85;13.23;;;2.50;99.90;;;;;;6162766;23;20079;-94
2022/12/12 11:40:34;;;;;;;28.88;13.88;;;2.50;99.90;;;;;;6158909;23;20044;-92
2022/12/12 11:43:15;;;;;;;30.95;13.13;;;2.50;99.90;;;;;;6182943;23;20009;-92
2022/12/12 11:45:40;;;;;;;27.65;13.60;;;2.50;99.90;;;;;;6181505;23;20024;-91
2022/12/12 11:48:35;;;;;;;27.23;12.68;;;2.50;99.90;;;;;;6154410;23;20335;-92
2022/12/12 11:51:01;;;;;;;30.10;13.75;;;2.50;99.90;;;;;;6182073;23;20009;-91
2022/12/12 11:53:27;;;;;;;28.65;13.30;;;2.50;99.90;;;;;;6181008;23;20341;-89
2022/12/12 11:56:04;;;;;;;29.02;13.95;;;2.50;99.90;;;;;;6156861;23;20052;-90
2022/12/12 11:58:49;;;;;;;30.30;14.23;;;2.60;99.90;;;;;;6156809;23;20010;-92
2022/12/12 12:01:31;;;;;;;28.60;13.80;;;2.60;99.90;;;;;;6156813;23;20048;-91
2022/12/12 12:04:26;;;;;;;33.75;14.15;;;2.50;99.90;;;;;;6157794;23;20021;-91
2022/12/12 12:07:07;;;;;;;30.38;14.50;;;2.60;99.90;;;;;;6182680;23;20131;-92
2022/12/12 12:09:45;;;;;;;26.50;12.52;;;2.60;99.90;;;;;;6152940;23;20451;-92
2022/12/12 12:12:27;;;;;;;30.90;14.52;;;2.60;99.90;;;;;;6182392;23;20351;-93
2022/12/12 12:15:17;;;;;;;30.55;14.20;;;2.60;99.90;;;;;;6160955;23;20017;-94
2022/12/12 12:17:43;;;;;;;29.77;14.00;;;2.60;99.90;;;;;;6162034;23;20920;-93
2022/12/12 12:20:30;;;;;;;28.92;13.40;;;2.60;99.90;;;;;;6156563;23;20013;-91
2022/12/12 12:23:12;;;;;;;30.90;13.98;;;2.60;99.90;;;;;;6156404;23;20328;-91
2022/12/12 12:25:52;;;;;;;27.88;13.95;;;2.60;99.90;;;;;;6181815;23;20013;-92
2022/12/12 12:28:29;;;;;;;30.60;13.55;;;2.60;99.90;;;;;;6156129;23;20096;-91
2022/12/12 12:31:10;;;;;;;30.17;14.20;;;2.60;99.90;;;;;;6181919;23;20021;-91
2022/12/12 12:33:41;;;;;;;29.73;13.60;;;2.60;99.90;;;;;;6179689;23;20013;-91
2022/12/12 12:36:21;;;;;;;29.60;13.57;;;2.50;99.90;;;;;;6180085;23;20247;-91
2022/12/12 12:39:22;;;;;;;32.35;15.80;;;2.50;99.90;;;;;;6131720;23;20013;-91
2022/12/12 12:42:03;;;;;;;30.83;14.90;;;2.40;99.90;;;;;;6135781;23;20013;-88
2022/12/12 12:44:56;;;;;;;30.00;13.67;;;2.40;99.90;;;;;;6156879;23;20024;-88
2022/12/12 12:47:33;;;;;;;26.08;12.75;;;2.40;99.90;;;;;;6155253;23;20017;-89
2022/12/12 12:50:14;;;;;;;31.30;13.38;;;2.40;99.90;;;;;;6179951;23;20567;-89
2022/12/12 12:52:47;;;;;;;31.08;12.63;;;2.40;99.90;;;;;;6179553;23;20071;-90
2022/12/12 12:55:18;;;;;;;31.20;14.98;;;2.40;99.90;;;;;;6155982;23;20021;-89
2022/12/12 12:57:47;;;;;;;30.88;15.15;;;2.40;99.90;;;;;;6182064;23;20040;-89
2022/12/12 13:00:23;;;;;;;31.67;14.10;;;2.50;99.90;;;;;;6180607;23;20009;-89
2022/12/12 13:02:56;;;;;;;31.10;15.27;;;2.50;99.90;;;;;;6177906;23;20017;-88
2022/12/12 13:05:32;;;;;;;33.75;16.38;;;2.50;99.90;;;;;;6152841;23;20025;-89
2022/12/12 13:08:23;;;;;;;31.83;15.25;;;2.50;99.90;;;;;;6154547;23;20059;-90
2022/12/12 13:10:56;;;;;;;33.30;15.50;;;2.50;99.90;;;;;;6179942;23;20029;-89
2022/12/12 13:13:31;;;;;;;32.33;14.90;;;2.50;99.90;;;;;;6154790;23;20017;-89
2022/12/12 13:16:14;;;;;;;28.67;12.45;;;2.50;99.90;;;;;;6155756;23;20022;-89
2022/12/12 13:18:42;;;;;;;28.95;14.05;;;2.40;99.90;;;;;;6153556;23;20017;-90
2022/12/12 13:21:27;;;;;;;29.42;13.15;;;2.50;99.90;;;;;;6178859;23;20021;-90
2022/12/12 13:24:07;;;;;;;31.25;13.35;;;2.50;99.90;;;;;;6182030;23;20013;-89